createdAt,value
2018-04-11T00:03:00.617Z,100908.90
2018-04-11T00:06:04.009Z,100912.99
2018-04-11T00:09:07.298Z,100910.76
2018-04-11T00:12:10.520Z,100906.00
2018-04-11T00:15:13.884Z,100913.39
2018-04-11T00:18:17.205Z,100912.78
2018-04-11T00:21:20.499Z,100909.54
2018-04-11T00:24:23.832Z,100908.25
2018-04-11T00:27:27.124Z,100902.23
2018-04-11T00:30:30.313Z,100899.24
2018-04-11T00:33:33.609Z,100900.61
2018-04-11T00:36:36.985Z,100901.06
2018-04-11T00:39:40.302Z,100901.75
2018-04-11T00:42:43.507Z,100908.56
2018-04-11T00:45:46.850Z,100908.19
2018-04-11T00:48:50.112Z,100911.00
2018-04-11T00:51:53.348Z,100912.33
2018-04-11T00:54:56.633Z,100912.94
2018-04-11T00:57:59.916Z,100912.41
2018-04-11T01:01:03.284Z,100911.95
2018-04-11T01:04:06.661Z,100910.02
2018-04-11T01:07:10.385Z,100912.81
2018-04-11T01:10:13.655Z,100912.13
2018-04-11T01:13:16.884Z,100915.92
2018-04-11T01:16:20.292Z,100916.12
2018-04-11T01:19:23.544Z,100917.40
2018-04-11T01:22:26.792Z,100915.76
2018-04-11T01:25:30.068Z,100912.62
2018-04-11T01:28:33.326Z,100912.69
2018-04-11T01:31:36.632Z,100911.32
2018-04-11T01:34:39.768Z,100908.05
2018-04-11T01:37:43.116Z,100910.17
2018-04-11T01:40:46.356Z,100908.28
2018-04-11T01:43:49.659Z,100906.40
2018-04-11T01:46:52.982Z,100910.04
2018-04-11T01:49:56.241Z,100915.48
2018-04-11T01:52:59.538Z,100912.38
2018-04-11T01:56:02.712Z,100917.04
2018-04-11T01:59:06.123Z,100918.49
2018-04-11T02:02:09.500Z,100914.97
2018-04-11T02:05:12.833Z,100916.18
2018-04-11T02:08:16.100Z,100921.99
2018-04-11T02:11:19.473Z,100921.22
2018-04-11T02:14:22.707Z,100916.84
2018-04-11T02:17:25.995Z,100919.22
2018-04-11T02:20:29.260Z,100922.70
2018-04-11T02:23:32.597Z,100927.17
2018-04-11T02:26:35.883Z,100926.81
2018-04-11T02:29:39.129Z,100931.05
2018-04-11T02:32:42.480Z,100926.56
2018-04-11T02:35:45.699Z,100928.78
2018-04-11T02:38:48.925Z,100934.09
2018-04-11T02:41:52.230Z,100934.67
2018-04-11T02:44:55.563Z,100933.36
2018-04-11T02:47:58.802Z,100929.80
2018-04-11T02:51:02.206Z,100935.00
2018-04-11T02:54:05.519Z,100933.88
2018-04-11T02:57:08.861Z,100941.96
2018-04-11T03:00:12.108Z,100948.47
2018-04-11T03:03:15.539Z,100945.80
2018-04-11T03:06:18.953Z,100941.94
2018-04-11T03:09:22.277Z,100945.63
2018-04-11T03:12:25.543Z,100946.52
2018-04-11T03:15:28.868Z,100952.68
2018-04-11T03:18:32.159Z,100949.57
2018-04-11T03:21:35.539Z,100948.73
2018-04-11T03:24:38.675Z,100949.52
2018-04-11T03:27:41.931Z,100955.05
2018-04-11T03:30:45.336Z,100951.06
2018-04-11T03:33:48.817Z,100955.37
2018-04-11T03:36:52.145Z,100961.07
2018-04-11T03:39:55.548Z,100960.80
2018-04-11T03:42:58.944Z,100958.62
2018-04-11T03:46:02.265Z,100955.50
2018-04-11T03:49:05.943Z,100964.37
2018-04-11T03:52:09.276Z,100959.94
2018-04-11T03:55:12.555Z,100963.87
2018-04-11T03:58:15.897Z,100963.91
2018-04-11T04:01:19.201Z,100958.41
2018-04-11T04:04:22.568Z,100962.16
2018-04-11T04:07:25.828Z,100962.50
2018-04-11T04:10:29.121Z,100959.18
2018-04-11T04:13:41.348Z,100961.37
2018-04-11T04:16:55.912Z,100969.36
2018-04-11T04:20:07.948Z,100971.03
2018-04-11T04:23:11.244Z,100970.00
2018-04-11T04:26:14.502Z,100966.44
2018-04-11T04:29:17.736Z,100972.14
2018-04-11T04:32:20.937Z,100969.53
2018-04-11T04:35:24.180Z,100978.18
2018-04-11T04:38:27.603Z,100980.22
2018-04-11T04:41:32.268Z,100984.08
2018-04-11T04:44:35.599Z,100984.20
2018-04-11T04:47:38.764Z,100989.03
2018-04-11T04:50:42.103Z,100995.69
2018-04-11T04:53:45.383Z,100995.09
2018-04-11T04:56:50.744Z,100999.46
2018-04-11T04:59:54.135Z,100999.82
2018-04-11T05:02:57.440Z,100999.27
2018-04-11T05:06:00.741Z,101000.37
2018-04-11T05:09:04.191Z,101000.87
2018-04-11T05:12:07.348Z,101001.20
2018-04-11T05:15:10.653Z,101004.79
2018-04-11T05:18:14.060Z,101004.02
2018-04-11T05:21:17.426Z,101006.23
2018-04-11T05:24:20.741Z,101009.86
2018-04-11T05:27:24.104Z,101012.40
2018-04-11T05:30:27.452Z,101012.85
2018-04-11T05:33:30.747Z,101015.76
2018-04-11T05:36:34.136Z,101012.24
2018-04-11T05:39:37.480Z,101012.21
2018-04-11T05:42:40.659Z,101015.11
2018-04-11T05:45:43.886Z,101014.30
2018-04-11T05:48:47.214Z,101014.63
2018-04-11T05:51:50.555Z,101022.52
2018-04-11T05:54:53.813Z,101018.97
2018-04-11T05:57:57.051Z,101020.09
2018-04-11T06:01:00.408Z,101029.88
2018-04-11T06:04:03.652Z,101029.91
2018-04-11T06:07:07.030Z,101029.68
2018-04-11T06:10:10.354Z,101029.76
2018-04-11T06:13:13.492Z,101030.54
2018-04-11T06:16:16.892Z,101032.06
2018-04-11T06:19:20.221Z,101030.90
2018-04-11T06:22:23.494Z,101028.17
2018-04-11T06:25:27.795Z,101029.59
2018-04-11T06:28:30.946Z,101028.60
2018-04-11T06:31:34.214Z,101023.41
2018-04-11T06:34:37.497Z,101023.30
2018-04-11T06:37:40.828Z,101017.76
2018-04-11T06:40:44.110Z,101019.15
2018-04-11T06:43:47.306Z,101020.37
2018-04-11T06:46:50.691Z,101019.67
2018-04-11T06:49:53.984Z,101015.90
2018-04-11T06:52:57.220Z,101012.44
2018-04-11T06:56:00.584Z,101014.20
2018-04-11T06:59:03.893Z,101015.93
2018-04-11T07:02:07.148Z,101013.32
2018-04-11T07:05:10.732Z,101006.84
2018-04-11T07:08:13.988Z,101011.89
2018-04-11T07:11:17.157Z,101007.09
2018-04-11T07:14:20.556Z,101010.93
2018-04-11T07:17:23.780Z,101012.00
2018-04-11T07:20:27.013Z,101006.99
2018-04-11T07:23:30.351Z,101009.08
2018-04-11T07:26:33.684Z,101006.43
2018-04-11T07:29:36.959Z,101007.96
2018-04-11T07:32:40.235Z,101009.68
2018-04-11T07:35:43.437Z,101013.51
2018-04-11T07:38:46.724Z,101015.34
2018-04-11T07:41:49.945Z,101008.33
2018-04-11T07:44:53.106Z,101011.19
2018-04-11T07:47:56.319Z,101002.62
2018-04-11T07:50:59.456Z,101005.56
2018-04-11T07:54:02.692Z,101007.78
2018-04-11T07:57:05.903Z,101002.66
2018-04-11T08:00:09.118Z,101000.33
2018-04-11T08:03:12.267Z,100997.24
2018-04-11T08:06:15.347Z,100996.61
2018-04-11T08:09:18.587Z,100990.80
2018-04-11T08:12:21.808Z,100990.29
2018-04-11T08:15:25.061Z,100988.95
2018-04-11T08:18:28.201Z,100987.31
2018-04-11T08:21:31.455Z,100985.37
2018-04-11T08:24:34.743Z,100992.18
2018-04-11T08:27:37.984Z,100987.65
2018-04-11T08:30:41.272Z,100988.07
2018-04-11T08:33:44.658Z,100987.01
2018-04-11T08:36:47.841Z,100984.87
2018-04-11T08:39:51.077Z,100979.46
2018-04-11T08:42:54.379Z,100983.55
2018-04-11T08:45:57.742Z,100986.22
2018-04-11T08:49:00.972Z,100981.29
2018-04-11T08:52:04.320Z,100988.69
2018-04-11T08:55:07.524Z,100982.10
2018-04-11T08:58:10.633Z,100982.43
2018-04-11T09:01:14.012Z,100981.28
2018-04-11T09:04:17.324Z,100975.99
2018-04-11T09:07:20.597Z,100973.52
2018-04-11T09:10:23.807Z,100973.11
2018-04-11T09:13:27.278Z,100974.09
2018-04-11T09:16:30.522Z,100966.31
2018-04-11T09:19:33.739Z,100960.80
2018-04-11T09:22:36.919Z,100958.24
2018-04-11T09:25:40.185Z,100952.14
2018-04-11T09:28:43.512Z,100948.61
2018-04-11T09:31:46.897Z,100955.64
2018-04-11T09:34:50.260Z,100956.09
2018-04-11T09:37:53.580Z,100951.97
2018-04-11T09:40:56.715Z,100949.38
2018-04-11T09:43:59.879Z,100946.45
2018-04-11T09:47:03.185Z,100944.68
2018-04-11T09:50:06.639Z,100925.68
2018-04-11T09:53:09.867Z,100924.17
2018-04-11T09:56:13.164Z,100919.33
2018-04-11T09:59:16.404Z,100912.93
2018-04-11T10:02:24.028Z,100905.66
2018-04-11T10:05:27.276Z,100909.23
2018-04-11T10:08:30.666Z,100909.26
2018-04-11T10:11:33.864Z,100902.64
2018-04-11T10:14:37.063Z,100899.80
2018-04-11T10:17:40.441Z,100895.79
2018-04-11T10:20:43.659Z,100894.09
2018-04-11T10:23:47.899Z,100891.73
2018-04-11T10:26:51.260Z,100884.03
2018-04-11T10:29:54.544Z,100873.41
2018-04-11T10:32:57.740Z,100866.13
2018-04-11T10:36:01.065Z,100868.73
2018-04-11T10:39:05.239Z,100865.47
2018-04-11T10:42:08.492Z,100861.48
2018-04-11T10:45:11.696Z,100857.36
2018-04-11T10:48:14.995Z,100857.59
2018-04-11T10:51:18.295Z,100846.99
2018-04-11T10:54:21.524Z,100845.61
2018-04-11T10:57:24.659Z,100843.87
2018-04-11T11:00:27.864Z,100837.07
2018-04-11T11:03:31.163Z,100831.53
2018-04-11T11:06:34.529Z,100824.88
2018-04-11T11:09:37.844Z,100825.71
2018-04-11T11:12:41.108Z,100826.47
2018-04-11T11:15:44.365Z,100823.48
2018-04-11T11:18:47.735Z,100813.66
2018-04-11T11:21:50.944Z,100817.49
2018-04-11T11:24:54.132Z,100818.96
2018-04-11T11:27:57.551Z,100818.87
2018-04-11T11:31:00.812Z,100814.46
2018-04-11T11:34:04.185Z,100798.10
2018-04-11T11:37:07.541Z,100813.03
2018-04-11T11:40:10.800Z,100807.63
2018-04-11T11:43:14.213Z,100806.39
2018-04-11T11:46:17.515Z,100792.42
2018-04-11T11:49:21.815Z,100792.64
2018-04-11T11:52:25.003Z,100788.39
2018-04-11T11:55:28.212Z,100786.00
2018-04-11T11:58:31.432Z,100782.18
2018-04-11T12:01:34.653Z,100773.10
2018-04-11T12:04:37.890Z,100772.04
2018-04-11T12:07:41.100Z,100771.43
2018-04-11T12:10:44.391Z,100764.51
2018-04-11T12:13:47.684Z,100766.52
2018-04-11T12:16:50.989Z,100761.88
2018-04-11T12:19:54.199Z,100755.60
2018-04-11T12:22:57.486Z,100752.98
2018-04-11T12:26:00.806Z,100755.85
2018-04-11T12:29:05.129Z,100747.47
2018-04-11T12:32:08.479Z,100737.55
2018-04-11T12:35:11.584Z,100725.53
2018-04-11T12:38:14.871Z,100725.81
2018-04-11T12:41:18.016Z,100720.35
2018-04-11T12:44:21.271Z,100723.99
2018-04-11T12:47:24.380Z,100719.88
2018-04-11T12:50:27.679Z,100717.83
2018-04-11T12:53:30.915Z,100718.49
2018-04-11T12:56:34.147Z,100703.40
2018-04-11T12:59:37.447Z,100695.53
2018-04-11T13:02:40.668Z,100691.49
2018-04-11T13:05:43.955Z,100683.96
2018-04-11T13:08:47.173Z,100686.77
2018-04-11T13:11:50.375Z,100681.18
2018-04-11T13:14:54.120Z,100675.85
2018-04-11T13:17:57.486Z,100665.08
2018-04-11T13:21:00.740Z,100659.09
2018-04-11T13:24:04.058Z,100657.17
2018-04-11T13:27:07.297Z,100652.32
2018-04-11T13:30:10.724Z,100644.07
2018-04-11T13:33:13.834Z,100639.20
2018-04-11T13:36:17.145Z,100639.64
2018-04-11T13:39:20.716Z,100636.22
2018-04-11T13:42:24.096Z,100633.28
2018-04-11T13:45:27.428Z,100636.64
2018-04-11T13:48:30.655Z,100631.36
2018-04-11T13:51:34.093Z,100634.32
2018-04-11T13:54:37.160Z,100636.26
2018-04-11T13:57:40.423Z,100627.19
2018-04-11T14:00:43.803Z,100626.25
2018-04-11T14:03:47.004Z,100619.81
2018-04-11T14:06:50.389Z,100618.29
2018-04-11T14:09:53.730Z,100615.67
2018-04-11T14:12:57.520Z,100612.39
2018-04-11T14:16:00.757Z,100613.73
2018-04-11T14:19:03.916Z,100607.31
2018-04-11T14:22:07.294Z,100613.95
2018-04-11T14:25:10.498Z,100606.86
2018-04-11T14:28:14.057Z,100598.68
2018-04-11T14:31:17.388Z,100612.68
2018-04-11T14:34:20.725Z,100607.18
2018-04-11T14:37:24.010Z,100608.69
2018-04-11T14:40:27.272Z,100603.78
2018-04-11T14:43:30.505Z,100601.99
2018-04-11T14:46:33.825Z,100602.62
2018-04-11T14:49:37.078Z,100598.77
2018-04-11T14:52:40.238Z,100594.36
2018-04-11T14:55:43.496Z,100591.18
2018-04-11T14:58:46.756Z,100586.05
2018-04-11T15:01:50.100Z,100578.16
2018-04-11T15:04:53.378Z,100572.98
2018-04-11T15:07:56.540Z,100567.92
2018-04-11T15:10:59.877Z,100570.99
2018-04-11T15:14:03.164Z,100574.18
2018-04-11T15:17:06.413Z,100568.58
2018-04-11T15:20:09.673Z,100574.34
2018-04-11T15:23:12.955Z,100562.89
2018-04-11T15:26:16.218Z,100563.96
2018-04-11T15:29:19.476Z,100573.15
2018-04-11T15:32:22.750Z,100564.22
2018-04-11T15:35:26.034Z,100559.70
2018-04-11T15:38:29.266Z,100560.62
2018-04-11T15:41:32.581Z,100558.21
2018-04-11T15:44:35.728Z,100557.82
2018-04-11T15:47:39.034Z,100560.34
2018-04-11T15:50:42.277Z,100554.62
2018-04-11T15:53:45.540Z,100554.54
2018-04-11T15:56:49.524Z,100551.30
2018-04-11T15:59:52.667Z,100545.30
2018-04-11T16:02:56.148Z,100544.76
2018-04-11T16:06:00.353Z,100541.50
2018-04-11T16:09:03.900Z,100537.66
2018-04-11T16:12:07.301Z,100539.19
2018-04-11T16:15:10.847Z,100535.35
2018-04-11T16:18:16.171Z,100540.58
2018-04-11T16:21:19.315Z,100535.57
2018-04-11T16:24:22.699Z,100539.03
2018-04-11T16:27:25.983Z,100541.28
2018-04-11T16:30:29.247Z,100545.94
2018-04-11T16:33:32.516Z,100543.04
2018-04-11T16:36:37.659Z,100544.81
2018-04-11T16:39:41.264Z,100540.85
2018-04-11T16:42:44.678Z,100544.94
2018-04-11T16:45:48.117Z,100534.33
2018-04-11T16:48:51.479Z,100528.88
2018-04-11T16:51:54.643Z,100523.26
2018-04-11T16:54:58.020Z,100525.96
2018-04-11T16:58:01.261Z,100515.14
2018-04-11T17:01:04.639Z,100510.26
2018-04-11T17:04:07.851Z,100512.77
2018-04-11T17:07:11.124Z,100513.59
2018-04-11T17:10:14.523Z,100522.22
2018-04-11T17:13:17.844Z,100523.04
2018-04-11T17:16:21.714Z,100520.86
2018-04-11T17:19:25.060Z,100519.10
2018-04-11T17:24:40.957Z,100516.72
2018-04-11T17:27:55.635Z,100512.16
2018-04-11T17:31:03.662Z,100517.26
2018-04-11T17:34:06.944Z,100514.07
2018-04-11T17:37:10.241Z,100509.39
2018-04-11T17:40:13.538Z,100507.86
2018-04-11T17:43:16.905Z,100510.44
2018-04-11T17:46:20.200Z,100514.22
2018-04-11T17:49:23.590Z,100516.56
2018-04-11T17:52:26.778Z,100511.93
2018-04-11T17:55:30.024Z,100511.08
2018-04-11T17:58:33.396Z,100508.45
2018-04-11T18:01:36.782Z,100512.99
2018-04-11T18:04:40.058Z,100516.16
2018-04-11T18:07:43.389Z,100513.17
2018-04-11T18:10:46.780Z,100517.80
2018-04-11T18:13:50.043Z,100521.73
2018-04-11T18:16:53.444Z,100520.47
2018-04-11T18:19:56.804Z,100518.60
2018-04-11T18:23:00.140Z,100517.17
2018-04-11T18:26:03.556Z,100512.75
2018-04-11T18:29:06.931Z,100505.93
2018-04-11T18:32:11.276Z,100506.97
2018-04-11T18:35:14.477Z,100504.23
2018-04-11T18:38:17.899Z,100497.75
2018-04-11T18:41:21.209Z,100497.57
2018-04-11T18:44:24.522Z,100496.24
2018-04-11T18:47:28.776Z,100497.11
2018-04-11T18:50:32.034Z,100502.36
2018-04-11T18:53:35.372Z,100502.97
2018-04-11T18:56:38.834Z,100501.66
2018-04-11T18:59:42.216Z,100499.93
2018-04-11T19:02:45.568Z,100501.62
2018-04-11T19:05:48.860Z,100496.88
2018-04-11T19:08:52.161Z,100493.05
2018-04-11T19:11:55.460Z,100492.45
2018-04-11T19:14:58.695Z,100485.94
2018-04-11T19:18:02.132Z,100486.77
2018-04-11T19:21:05.472Z,100487.46
2018-04-11T19:24:08.933Z,100486.79
2018-04-11T19:27:12.137Z,100479.92
2018-04-11T19:30:15.470Z,100480.21
2018-04-11T19:33:18.899Z,100479.29
2018-04-11T19:36:22.273Z,100476.35
2018-04-11T19:39:25.676Z,100472.55
2018-04-11T19:42:28.821Z,100467.03
2018-04-11T19:45:32.264Z,100463.23
2018-04-11T19:48:35.550Z,100462.12
2018-04-11T19:51:38.780Z,100460.58
2018-04-11T19:54:41.968Z,100460.68
2018-04-11T19:57:45.275Z,100459.07
2018-04-11T20:00:48.844Z,100452.47
2018-04-11T20:03:52.061Z,100448.38
2018-04-11T20:06:55.496Z,100445.94
2018-04-11T20:09:58.760Z,100444.80
2018-04-11T20:13:02.027Z,100440.30
2018-04-11T20:16:05.263Z,100437.33
2018-04-11T20:19:08.551Z,100429.68
2018-04-11T20:22:11.856Z,100430.50
2018-04-11T20:25:15.169Z,100426.13
2018-04-11T20:28:18.579Z,100428.14
2018-04-11T20:31:21.951Z,100426.74
2018-04-11T20:34:25.251Z,100419.42
2018-04-11T20:37:28.516Z,100422.00
2018-04-11T20:40:31.761Z,100418.91
2018-04-11T20:43:35.244Z,100413.41
2018-04-11T20:46:38.525Z,100412.98
2018-04-11T20:49:41.815Z,100406.62
2018-04-11T20:52:45.057Z,100401.50
2018-04-11T20:55:48.388Z,100398.69
2018-04-11T20:58:52.223Z,100394.76
2018-04-11T21:01:55.647Z,100396.75
2018-04-11T21:04:59.034Z,100385.12
2018-04-11T21:08:02.232Z,100386.84
2018-04-11T21:11:05.521Z,100380.46
2018-04-11T21:14:08.897Z,100381.77
2018-04-11T21:17:12.196Z,100378.33
2018-04-11T21:20:15.382Z,100374.02
2018-04-11T21:23:18.772Z,100368.39
2018-04-11T21:26:22.094Z,100368.67
2018-04-11T21:29:25.292Z,100360.12
2018-04-11T21:32:28.676Z,100358.66
2018-04-11T21:35:31.977Z,100351.05
2018-04-11T21:38:35.314Z,100346.27
2018-04-11T21:41:38.557Z,100347.71
2018-04-11T21:44:41.831Z,100340.68
2018-04-11T21:47:45.146Z,100340.42
2018-04-11T21:50:48.496Z,100329.92
2018-04-11T21:53:51.800Z,100328.91
2018-04-11T21:56:55.009Z,100329.96
2018-04-11T21:59:58.251Z,100326.71
2018-04-11T22:03:01.888Z,100317.92
2018-04-11T22:06:05.436Z,100318.37
2018-04-11T22:09:08.767Z,100315.77
2018-04-11T22:12:12.083Z,100309.26
2018-04-11T22:15:15.504Z,100309.63
2018-04-11T22:18:18.781Z,100305.91
2018-04-11T22:21:22.079Z,100299.27
2018-04-11T22:24:25.468Z,100299.69
2018-04-11T22:27:28.747Z,100296.90
2018-04-11T22:30:32.075Z,100288.75
2018-04-11T22:33:35.469Z,100278.97
2018-04-11T22:36:38.741Z,100281.62
2018-04-11T22:39:42.188Z,100272.49
2018-04-11T22:42:45.540Z,100267.03
2018-04-11T22:45:48.828Z,100261.40
2018-04-11T22:48:52.193Z,100264.08
2018-04-11T22:51:55.685Z,100260.69
2018-04-11T22:54:59.066Z,100255.73
2018-04-11T22:58:02.390Z,100257.74
2018-04-11T23:01:05.718Z,100250.19
2018-04-11T23:04:09.073Z,100253.22
2018-04-11T23:07:12.331Z,100252.96
2018-04-11T23:10:15.753Z,100244.80
2018-04-11T23:13:19.061Z,100238.10
2018-04-11T23:16:22.423Z,100238.26
2018-04-11T23:19:25.663Z,100231.68
2018-04-11T23:22:29.027Z,100229.04
2018-04-11T23:25:32.315Z,100217.43
2018-04-11T23:28:35.714Z,100213.27
2018-04-11T23:31:38.940Z,100209.81
2018-04-11T23:34:42.363Z,100204.33
2018-04-11T23:37:46.528Z,100197.81
2018-04-11T23:40:49.756Z,100192.87
2018-04-11T23:43:52.972Z,100190.45
2018-04-11T23:46:56.180Z,100186.44
2018-04-11T23:50:00.735Z,100178.65
2018-04-11T23:53:03.938Z,100177.57
2018-04-11T23:56:07.233Z,100168.18
2018-04-11T23:59:10.555Z,100165.92
